sensor_id;sensor_type;location;lat;lon;timestamp;P1;durP1;ratioP1;P2;durP2;ratioP2
18336;SDS011;9294;51.106;7.028;2023-12-20T00:01:06;8.25;;;7.65;;
18336;SDS011;9294;51.106;7.028;2023-12-20T00:03:32;8.10;;;7.53;;
18336;SDS011;9294;51.106;7.028;2023-12-20T00:05:59;8.52;;;7.88;;
18336;SDS011;9294;51.106;7.028;2023-12-20T00:08:26;7.80;;;7.30;;
18336;SDS011;9294;51.106;7.028;2023-12-20T00:10:54;8.00;;;7.50;;
18336;SDS011;9294;51.106;7.028;2023-12-20T00:13:20;7.63;;;7.03;;
18336;SDS011;9294;51.106;7.028;2023-12-20T00:15:47;7.80;;;7.30;;
18336;SDS011;9294;51.106;7.028;2023-12-20T00:18:13;7.97;;;7.47;;
18336;SDS011;9294;51.106;7.028;2023-12-20T00:20:40;7.60;;;7.10;;
18336;SDS011;9294;51.106;7.028;2023-12-20T00:23:07;7.32;;;6.82;;
18336;SDS011;9294;51.106;7.028;2023-12-20T00:25:34;7.72;;;7.10;;
18336;SDS011;9294;51.106;7.028;2023-12-20T00:28:02;7.65;;;7.05;;
18336;SDS011;9294;51.106;7.028;2023-12-20T00:30:29;7.68;;;7.18;;
18336;SDS011;9294;51.106;7.028;2023-12-20T00:32:56;7.43;;;6.93;;
18336;SDS011;9294;51.106;7.028;2023-12-20T00:35:22;6.72;;;6.32;;
18336;SDS011;9294;51.106;7.028;2023-12-20T00:37:49;7.13;;;6.63;;
18336;SDS011;9294;51.106;7.028;2023-12-20T00:40:16;6.65;;;6.25;;
18336;SDS011;9294;51.106;7.028;2023-12-20T00:42:43;7.10;;;6.65;;
18336;SDS011;9294;51.106;7.028;2023-12-20T00:45:13;7.32;;;6.85;;
18336;SDS011;9294;51.106;7.028;2023-12-20T00:47:40;6.15;;;5.82;;
18336;SDS011;9294;51.106;7.028;2023-12-20T00:50:07;6.40;;;6.00;;
18336;SDS011;9294;51.106;7.028;2023-12-20T00:52:34;5.78;;;5.45;;
18336;SDS011;9294;51.106;7.028;2023-12-20T00:55:01;6.32;;;5.93;;
18336;SDS011;9294;51.106;7.028;2023-12-20T00:57:28;6.13;;;5.82;;
18336;SDS011;9294;51.106;7.028;2023-12-20T00:59:56;6.15;;;5.75;;
18336;SDS011;9294;51.106;7.028;2023-12-20T01:02:24;5.82;;;5.45;;
18336;SDS011;9294;51.106;7.028;2023-12-20T01:04:50;6.15;;;5.75;;
18336;SDS011;9294;51.106;7.028;2023-12-20T01:07:17;5.70;;;5.40;;
18336;SDS011;9294;51.106;7.028;2023-12-20T01:09:44;6.55;;;6.15;;
18336;SDS011;9294;51.106;7.028;2023-12-20T01:12:11;6.03;;;5.63;;
18336;SDS011;9294;51.106;7.028;2023-12-20T01:14:38;5.35;;;5.05;;
18336;SDS011;9294;51.106;7.028;2023-12-20T01:17:05;5.13;;;4.82;;
18336;SDS011;9294;51.106;7.028;2023-12-20T01:19:33;5.60;;;5.20;;
18336;SDS011;9294;51.106;7.028;2023-12-20T01:21:59;5.90;;;5.50;;
18336;SDS011;9294;51.106;7.028;2023-12-20T01:24:26;5.25;;;4.95;;
18336;SDS011;9294;51.106;7.028;2023-12-20T01:26:53;4.90;;;4.68;;
18336;SDS011;9294;51.106;7.028;2023-12-20T01:29:19;5.18;;;4.88;;
18336;SDS011;9294;51.106;7.028;2023-12-20T01:31:46;5.13;;;4.82;;
18336;SDS011;9294;51.106;7.028;2023-12-20T01:34:13;5.65;;;5.25;;
18336;SDS011;9294;51.106;7.028;2023-12-20T01:36:41;4.57;;;4.38;;
18336;SDS011;9294;51.106;7.028;2023-12-20T01:39:07;5.28;;;4.88;;
18336;SDS011;9294;51.106;7.028;2023-12-20T01:41:34;4.80;;;4.60;;
18336;SDS011;9294;51.106;7.028;2023-12-20T01:44:00;5.18;;;4.85;;
18336;SDS011;9294;51.106;7.028;2023-12-20T01:46:27;5.18;;;4.88;;
18336;SDS011;9294;51.106;7.028;2023-12-20T01:48:54;4.28;;;4.07;;
18336;SDS011;9294;51.106;7.028;2023-12-20T01:51:21;4.53;;;4.32;;
18336;SDS011;9294;51.106;7.028;2023-12-20T01:53:49;4.43;;;4.22;;
18336;SDS011;9294;51.106;7.028;2023-12-20T01:56:16;4.55;;;4.35;;
18336;SDS011;9294;51.106;7.028;2023-12-20T01:58:44;4.38;;;4.18;;
18336;SDS011;9294;51.106;7.028;2023-12-20T02:01:11;4.28;;;4.07;;
18336;SDS011;9294;51.106;7.028;2023-12-20T02:03:38;4.50;;;4.20;;
18336;SDS011;9294;51.106;7.028;2023-12-20T02:06:06;3.65;;;3.55;;
18336;SDS011;9294;51.106;7.028;2023-12-20T02:08:34;3.97;;;3.78;;
18336;SDS011;9294;51.106;7.028;2023-12-20T02:11:02;4.05;;;3.83;;
18336;SDS011;9294;51.106;7.028;2023-12-20T02:13:29;3.30;;;3.13;;
18336;SDS011;9294;51.106;7.028;2023-12-20T02:15:56;3.88;;;3.67;;
18336;SDS011;9294;51.106;7.028;2023-12-20T02:18:23;3.83;;;3.63;;
18336;SDS011;9294;51.106;7.028;2023-12-20T02:20:50;4.15;;;3.95;;
18336;SDS011;9294;51.106;7.028;2023-12-20T02:23:18;3.92;;;3.63;;
18336;SDS011;9294;51.106;7.028;2023-12-20T02:25:45;3.45;;;3.35;;
18336;SDS011;9294;51.106;7.028;2023-12-20T02:28:12;3.55;;;3.35;;
18336;SDS011;9294;51.106;7.028;2023-12-20T02:30:39;3.53;;;3.30;;
18336;SDS011;9294;51.106;7.028;2023-12-20T02:33:07;3.70;;;3.47;;
18336;SDS011;9294;51.106;7.028;2023-12-20T02:35:36;3.72;;;3.53;;
18336;SDS011;9294;51.106;7.028;2023-12-20T02:38:03;3.40;;;3.20;;
18336;SDS011;9294;51.106;7.028;2023-12-20T02:40:31;3.42;;;3.33;;
18336;SDS011;9294;51.106;7.028;2023-12-20T02:42:58;3.38;;;3.25;;
18336;SDS011;9294;51.106;7.028;2023-12-20T02:45:24;3.15;;;3.03;;
18336;SDS011;9294;51.106;7.028;2023-12-20T02:47:52;2.88;;;2.78;;
18336;SDS011;9294;51.106;7.028;2023-12-20T02:50:19;2.97;;;2.78;;
18336;SDS011;9294;51.106;7.028;2023-12-20T02:52:45;2.95;;;2.75;;
18336;SDS011;9294;51.106;7.028;2023-12-20T02:55:12;3.17;;;3.00;;
18336;SDS011;9294;51.106;7.028;2023-12-20T02:57:40;2.88;;;2.78;;
18336;SDS011;9294;51.106;7.028;2023-12-20T03:00:07;2.72;;;2.63;;
18336;SDS011;9294;51.106;7.028;2023-12-20T03:02:35;2.75;;;2.65;;
18336;SDS011;9294;51.106;7.028;2023-12-20T03:05:02;3.33;;;3.22;;
18336;SDS011;9294;51.106;7.028;2023-12-20T03:07:28;2.78;;;2.67;;
18336;SDS011;9294;51.106;7.028;2023-12-20T03:09:55;2.50;;;2.40;;
18336;SDS011;9294;51.106;7.028;2023-12-20T03:12:21;2.97;;;2.78;;
18336;SDS011;9294;51.106;7.028;2023-12-20T03:14:50;2.80;;;2.70;;
18336;SDS011;9294;51.106;7.028;2023-12-20T03:17:16;2.30;;;2.20;;
18336;SDS011;9294;51.106;7.028;2023-12-20T03:19:43;2.63;;;2.53;;
18336;SDS011;9294;51.106;7.028;2023-12-20T03:22:10;2.50;;;2.40;;
18336;SDS011;9294;51.106;7.028;2023-12-20T03:24:37;2.67;;;2.58;;
18336;SDS011;9294;51.106;7.028;2023-12-20T03:27:03;2.67;;;2.58;;
18336;SDS011;9294;51.106;7.028;2023-12-20T03:29:30;2.53;;;2.42;;
18336;SDS011;9294;51.106;7.028;2023-12-20T03:31:58;2.50;;;2.40;;
18336;SDS011;9294;51.106;7.028;2023-12-20T03:34:25;2.53;;;2.45;;
18336;SDS011;9294;51.106;7.028;2023-12-20T03:36:54;2.65;;;2.55;;
18336;SDS011;9294;51.106;7.028;2023-12-20T03:39:20;2.78;;;2.67;;
18336;SDS011;9294;51.106;7.028;2023-12-20T03:41:47;2.28;;;2.17;;
18336;SDS011;9294;51.106;7.028;2023-12-20T03:44:14;2.40;;;2.30;;
18336;SDS011;9294;51.106;7.028;2023-12-20T03:46:40;2.50;;;2.40;;
18336;SDS011;9294;51.106;7.028;2023-12-20T03:49:08;2.55;;;2.45;;
18336;SDS011;9294;51.106;7.028;2023-12-20T03:51:35;2.72;;;2.53;;
18336;SDS011;9294;51.106;7.028;2023-12-20T03:54:02;2.50;;;2.40;;
18336;SDS011;9294;51.106;7.028;2023-12-20T03:56:29;2.78;;;2.67;;
18336;SDS011;9294;51.106;7.028;2023-12-20T03:58:55;2.40;;;2.30;;
18336;SDS011;9294;51.106;7.028;2023-12-20T04:01:22;2.35;;;2.22;;
18336;SDS011;9294;51.106;7.028;2023-12-20T04:03:49;2.40;;;2.30;;
18336;SDS011;9294;51.106;7.028;2023-12-20T04:06:17;2.40;;;2.20;;
18336;SDS011;9294;51.106;7.028;2023-12-20T04:08:44;1.92;;;1.83;;
18336;SDS011;9294;51.106;7.028;2023-12-20T04:11:11;2.42;;;2.30;;
18336;SDS011;9294;51.106;7.028;2023-12-20T04:13:37;2.28;;;2.17;;
18336;SDS011;9294;51.106;7.028;2023-12-20T04:16:04;2.30;;;2.20;;
18336;SDS011;9294;51.106;7.028;2023-12-20T04:18:31;2.35;;;2.25;;
18336;SDS011;9294;51.106;7.028;2023-12-20T04:20:58;2.38;;;2.28;;
18336;SDS011;9294;51.106;7.028;2023-12-20T04:23:26;2.58;;;2.38;;
18336;SDS011;9294;51.106;7.028;2023-12-20T04:25:53;2.20;;;2.10;;
18336;SDS011;9294;51.106;7.028;2023-12-20T04:28:20;2.60;;;2.45;;
18336;SDS011;9294;51.106;7.028;2023-12-20T04:30:47;2.25;;;2.15;;
18336;SDS011;9294;51.106;7.028;2023-12-20T04:33:13;2.60;;;2.50;;
18336;SDS011;9294;51.106;7.028;2023-12-20T04:35:40;1.70;;;1.65;;
18336;SDS011;9294;51.106;7.028;2023-12-20T04:38:07;2.20;;;2.10;;
18336;SDS011;9294;51.106;7.028;2023-12-20T04:40:36;2.40;;;2.30;;
18336;SDS011;9294;51.106;7.028;2023-12-20T04:43:03;2.50;;;2.40;;
18336;SDS011;9294;51.106;7.028;2023-12-20T04:45:29;2.05;;;1.90;;
18336;SDS011;9294;51.106;7.028;2023-12-20T04:47:56;2.13;;;2.05;;
18336;SDS011;9294;51.106;7.028;2023-12-20T04:50:23;2.22;;;2.13;;
18336;SDS011;9294;51.106;7.028;2023-12-20T04:52:49;1.85;;;1.85;;
18336;SDS011;9294;51.106;7.028;2023-12-20T04:55:16;2.47;;;2.38;;
18336;SDS011;9294;51.106;7.028;2023-12-20T04:57:44;2.50;;;1.98;;
18336;SDS011;9294;51.106;7.028;2023-12-20T05:00:12;2.20;;;2.10;;
18336;SDS011;9294;51.106;7.028;2023-12-20T05:02:39;2.10;;;2.00;;
18336;SDS011;9294;51.106;7.028;2023-12-20T05:05:06;1.85;;;1.75;;
18336;SDS011;9294;51.106;7.028;2023-12-20T05:07:33;2.10;;;2.00;;
18336;SDS011;9294;51.106;7.028;2023-12-20T05:10:00;1.90;;;1.80;;
18336;SDS011;9294;51.106;7.028;2023-12-20T05:12:26;1.88;;;1.63;;
18336;SDS011;9294;51.106;7.028;2023-12-20T05:14:54;2.33;;;2.13;;
18336;SDS011;9294;51.106;7.028;2023-12-20T05:17:21;1.70;;;1.60;;
18336;SDS011;9294;51.106;7.028;2023-12-20T05:19:47;1.88;;;1.77;;
18336;SDS011;9294;51.106;7.028;2023-12-20T05:22:14;1.77;;;1.60;;
18336;SDS011;9294;51.106;7.028;2023-12-20T05:24:41;1.80;;;1.50;;
18336;SDS011;9294;51.106;7.028;2023-12-20T05:27:07;1.83;;;1.73;;
18336;SDS011;9294;51.106;7.028;2023-12-20T05:29:34;1.98;;;1.88;;
18336;SDS011;9294;51.106;7.028;2023-12-20T05:32:02;1.70;;;1.60;;
18336;SDS011;9294;51.106;7.028;2023-12-20T05:34:29;1.95;;;1.85;;
18336;SDS011;9294;51.106;7.028;2023-12-20T05:36:57;2.10;;;1.98;;
18336;SDS011;9294;51.106;7.028;2023-12-20T05:39:24;1.50;;;1.42;;
18336;SDS011;9294;51.106;7.028;2023-12-20T05:41:50;1.67;;;1.58;;
18336;SDS011;9294;51.106;7.028;2023-12-20T05:44:17;1.38;;;1.27;;
18336;SDS011;9294;51.106;7.028;2023-12-20T05:46:44;1.50;;;1.40;;
18336;SDS011;9294;51.106;7.028;2023-12-20T05:49:12;1.70;;;1.60;;
18336;SDS011;9294;51.106;7.028;2023-12-20T05:51:39;1.85;;;1.65;;
18336;SDS011;9294;51.106;7.028;2023-12-20T05:54:05;1.58;;;1.48;;
18336;SDS011;9294;51.106;7.028;2023-12-20T05:56:32;2.08;;;1.45;;
18336;SDS011;9294;51.106;7.028;2023-12-20T05:58:58;1.67;;;1.58;;
18336;SDS011;9294;51.106;7.028;2023-12-20T06:01:25;1.58;;;1.33;;
18336;SDS011;9294;51.106;7.028;2023-12-20T06:03:52;1.63;;;1.52;;
18336;SDS011;9294;51.106;7.028;2023-12-20T06:06:20;1.77;;;1.60;;
18336;SDS011;9294;51.106;7.028;2023-12-20T06:08:46;1.58;;;1.48;;
18336;SDS011;9294;51.106;7.028;2023-12-20T06:11:13;2.10;;;1.42;;
18336;SDS011;9294;51.106;7.028;2023-12-20T06:13:40;1.38;;;1.27;;
18336;SDS011;9294;51.106;7.028;2023-12-20T06:16:06;2.42;;;1.58;;
18336;SDS011;9294;51.106;7.028;2023-12-20T06:18:33;1.83;;;1.73;;
18336;SDS011;9294;51.106;7.028;2023-12-20T06:21:01;1.60;;;1.50;;
18336;SDS011;9294;51.106;7.028;2023-12-20T06:23:30;1.50;;;1.40;;
18336;SDS011;9294;51.106;7.028;2023-12-20T06:25:56;3.85;;;1.88;;
18336;SDS011;9294;51.106;7.028;2023-12-20T06:28:23;1.85;;;1.75;;
18336;SDS011;9294;51.106;7.028;2023-12-20T06:30:50;2.03;;;1.88;;
18336;SDS011;9294;51.106;7.028;2023-12-20T06:33:17;2.33;;;1.50;;
18336;SDS011;9294;51.106;7.028;2023-12-20T06:35:46;1.70;;;1.40;;
18336;SDS011;9294;51.106;7.028;2023-12-20T06:38:13;1.90;;;1.65;;
18336;SDS011;9294;51.106;7.028;2023-12-20T06:40:41;2.53;;;1.88;;
18336;SDS011;9294;51.106;7.028;2023-12-20T06:43:08;1.73;;;1.63;;
18336;SDS011;9294;51.106;7.028;2023-12-20T06:45:34;1.60;;;1.50;;
18336;SDS011;9294;51.106;7.028;2023-12-20T06:48:01;1.60;;;1.50;;
18336;SDS011;9294;51.106;7.028;2023-12-20T06:50:27;1.48;;;1.38;;
18336;SDS011;9294;51.106;7.028;2023-12-20T06:52:54;2.78;;;1.65;;
18336;SDS011;9294;51.106;7.028;2023-12-20T06:55:21;3.35;;;1.70;;
18336;SDS011;9294;51.106;7.028;2023-12-20T06:57:49;4.25;;;1.95;;
18336;SDS011;9294;51.106;7.028;2023-12-20T07:00:16;3.75;;;1.70;;
18336;SDS011;9294;51.106;7.028;2023-12-20T07:02:44;1.77;;;1.40;;
18336;SDS011;9294;51.106;7.028;2023-12-20T07:05:12;3.15;;;2.08;;
18336;SDS011;9294;51.106;7.028;2023-12-20T07:07:42;2.70;;;1.80;;
18336;SDS011;9294;51.106;7.028;2023-12-20T07:10:08;2.13;;;1.67;;
18336;SDS011;9294;51.106;7.028;2023-12-20T07:12:35;2.53;;;1.65;;
18336;SDS011;9294;51.106;7.028;2023-12-20T07:15:04;3.22;;;1.95;;
18336;SDS011;9294;51.106;7.028;2023-12-20T07:17:32;5.47;;;1.73;;
18336;SDS011;9294;51.106;7.028;2023-12-20T07:19:59;4.65;;;1.80;;
18336;SDS011;9294;51.106;7.028;2023-12-20T07:22:28;3.30;;;1.70;;
18336;SDS011;9294;51.106;7.028;2023-12-20T07:24:56;3.75;;;1.90;;
18336;SDS011;9294;51.106;7.028;2023-12-20T07:27:23;1.65;;;1.55;;
18336;SDS011;9294;51.106;7.028;2023-12-20T07:29:49;3.63;;;2.00;;
18336;SDS011;9294;51.106;7.028;2023-12-20T07:32:17;5.03;;;2.45;;
18336;SDS011;9294;51.106;7.028;2023-12-20T07:34:44;1.75;;;1.65;;
18336;SDS011;9294;51.106;7.028;2023-12-20T07:37:11;2.58;;;1.73;;
18336;SDS011;9294;51.106;7.028;2023-12-20T07:39:38;4.10;;;2.85;;
18336;SDS011;9294;51.106;7.028;2023-12-20T07:42:06;14.73;;;6.70;;
18336;SDS011;9294;51.106;7.028;2023-12-20T07:44:33;12.23;;;5.65;;
18336;SDS011;9294;51.106;7.028;2023-12-20T07:47:00;14.52;;;6.85;;
18336;SDS011;9294;51.106;7.028;2023-12-20T07:49:28;12.55;;;5.97;;
18336;SDS011;9294;51.106;7.028;2023-12-20T07:51:56;13.85;;;7.53;;
18336;SDS011;9294;51.106;7.028;2023-12-20T07:54:22;13.40;;;7.80;;
18336;SDS011;9294;51.106;7.028;2023-12-20T07:56:49;14.55;;;7.80;;
18336;SDS011;9294;51.106;7.028;2023-12-20T07:59:16;13.98;;;6.43;;
18336;SDS011;9294;51.106;7.028;2023-12-20T08:01:42;15.57;;;6.93;;
18336;SDS011;9294;51.106;7.028;2023-12-20T08:04:09;13.80;;;5.15;;
18336;SDS011;9294;51.106;7.028;2023-12-20T08:06:37;10.82;;;5.28;;
18336;SDS011;9294;51.106;7.028;2023-12-20T08:09:04;6.95;;;5.53;;
18336;SDS011;9294;51.106;7.028;2023-12-20T08:11:30;12.00;;;6.18;;
18336;SDS011;9294;51.106;7.028;2023-12-20T08:13:57;9.45;;;4.80;;
18336;SDS011;9294;51.106;7.028;2023-12-20T08:16:24;15.75;;;5.57;;
18336;SDS011;9294;51.106;7.028;2023-12-20T08:18:50;12.82;;;6.88;;
18336;SDS011;9294;51.106;7.028;2023-12-20T08:21:17;13.80;;;7.03;;
18336;SDS011;9294;51.106;7.028;2023-12-20T08:23:46;14.60;;;7.13;;
18336;SDS011;9294;51.106;7.028;2023-12-20T08:26:14;15.57;;;7.80;;
18336;SDS011;9294;51.106;7.028;2023-12-20T08:28:46;14.50;;;7.55;;
18336;SDS011;9294;51.106;7.028;2023-12-20T08:31:13;18.30;;;8.07;;
18336;SDS011;9294;51.106;7.028;2023-12-20T08:33:41;16.65;;;6.70;;
18336;SDS011;9294;51.106;7.028;2023-12-20T08:36:09;12.30;;;7.07;;
18336;SDS011;9294;51.106;7.028;2023-12-20T08:38:36;14.85;;;7.22;;
18336;SDS011;9294;51.106;7.028;2023-12-20T08:41:04;12.27;;;7.57;;
18336;SDS011;9294;51.106;7.028;2023-12-20T08:43:31;14.25;;;7.30;;
18336;SDS011;9294;51.106;7.028;2023-12-20T08:45:57;15.75;;;7.03;;
18336;SDS011;9294;51.106;7.028;2023-12-20T08:48:24;12.23;;;7.35;;
18336;SDS011;9294;51.106;7.028;2023-12-20T08:50:51;12.38;;;6.70;;
18336;SDS011;9294;51.106;7.028;2023-12-20T08:53:18;16.95;;;7.80;;
18336;SDS011;9294;51.106;7.028;2023-12-20T08:55:44;13.77;;;6.70;;
18336;SDS011;9294;51.106;7.028;2023-12-20T08:58:12;12.27;;;6.90;;
18336;SDS011;9294;51.106;7.028;2023-12-20T09:00:39;17.42;;;7.97;;
18336;SDS011;9294;51.106;7.028;2023-12-20T09:03:06;17.20;;;6.57;;
18336;SDS011;9294;51.106;7.028;2023-12-20T09:05:33;11.40;;;6.25;;
18336;SDS011;9294;51.106;7.028;2023-12-20T09:07:59;13.15;;;6.20;;
18336;SDS011;9294;51.106;7.028;2023-12-20T09:10:26;11.45;;;6.03;;
18336;SDS011;9294;51.106;7.028;2023-12-20T09:12:53;9.93;;;5.53;;
18336;SDS011;9294;51.106;7.028;2023-12-20T09:15:22;11.20;;;5.75;;
18336;SDS011;9294;51.106;7.028;2023-12-20T09:17:49;8.18;;;5.25;;
18336;SDS011;9294;51.106;7.028;2023-12-20T09:23:19;10.68;;;5.18;;
18336;SDS011;9294;51.106;7.028;2023-12-20T09:25:46;8.50;;;4.85;;
18336;SDS011;9294;51.106;7.028;2023-12-20T09:28:13;11.75;;;5.57;;
18336;SDS011;9294;51.106;7.028;2023-12-20T09:30:41;6.95;;;4.85;;
18336;SDS011;9294;51.106;7.028;2023-12-20T09:33:09;8.73;;;4.63;;
18336;SDS011;9294;51.106;7.028;2023-12-20T09:35:36;7.90;;;5.03;;
18336;SDS011;9294;51.106;7.028;2023-12-20T09:38:03;11.32;;;5.45;;
18336;SDS011;9294;51.106;7.028;2023-12-20T09:40:30;6.63;;;4.72;;
18336;SDS011;9294;51.106;7.028;2023-12-20T09:43:02;10.23;;;4.88;;
18336;SDS011;9294;51.106;7.028;2023-12-20T09:45:30;7.60;;;4.72;;
18336;SDS011;9294;51.106;7.028;2023-12-20T09:47:59;7.93;;;4.53;;
18336;SDS011;9294;51.106;7.028;2023-12-20T09:50:26;9.52;;;4.50;;
18336;SDS011;9294;51.106;7.028;2023-12-20T09:52:55;8.30;;;4.97;;
18336;SDS011;9294;51.106;7.028;2023-12-20T09:55:24;7.05;;;4.22;;
18336;SDS011;9294;51.106;7.028;2023-12-20T09:57:51;6.95;;;4.35;;
18336;SDS011;9294;51.106;7.028;2023-12-20T10:00:18;12.35;;;4.55;;
18336;SDS011;9294;51.106;7.028;2023-12-20T10:02:46;9.18;;;4.13;;
18336;SDS011;9294;51.106;7.028;2023-12-20T10:05:20;6.15;;;4.10;;
18336;SDS011;9294;51.106;7.028;2023-12-20T10:07:53;6.65;;;4.13;;
18336;SDS011;9294;51.106;7.028;2023-12-20T10:10:20;7.10;;;3.72;;
18336;SDS011;9294;51.106;7.028;2023-12-20T10:13:00;6.90;;;4.00;;
18336;SDS011;9294;51.106;7.028;2023-12-20T10:15:27;6.75;;;4.05;;
18336;SDS011;9294;51.106;7.028;2023-12-20T10:17:54;6.13;;;3.47;;
18336;SDS011;9294;51.106;7.028;2023-12-20T10:20:22;7.25;;;3.35;;
18336;SDS011;9294;51.106;7.028;2023-12-20T10:22:49;5.40;;;3.58;;
18336;SDS011;9294;51.106;7.028;2023-12-20T10:25:18;4.05;;;3.30;;
18336;SDS011;9294;51.106;7.028;2023-12-20T10:27:45;4.15;;;3.05;;
18336;SDS011;9294;51.106;7.028;2023-12-20T10:30:12;5.28;;;3.25;;
18336;SDS011;9294;51.106;7.028;2023-12-20T10:32:39;5.43;;;3.00;;
18336;SDS011;9294;51.106;7.028;2023-12-20T10:35:06;4.43;;;3.38;;
18336;SDS011;9294;51.106;7.028;2023-12-20T10:37:36;5.68;;;2.60;;
18336;SDS011;9294;51.106;7.028;2023-12-20T10:40:04;4.05;;;3.10;;
18336;SDS011;9294;51.106;7.028;2023-12-20T10:42:32;10.45;;;3.88;;
18336;SDS011;9294;51.106;7.028;2023-12-20T10:45:01;6.18;;;2.88;;
18336;SDS011;9294;51.106;7.028;2023-12-20T10:47:28;8.57;;;3.22;;
18336;SDS011;9294;51.106;7.028;2023-12-20T10:49:57;9.18;;;3.20;;
18336;SDS011;9294;51.106;7.028;2023-12-20T10:52:25;4.55;;;2.88;;
18336;SDS011;9294;51.106;7.028;2023-12-20T10:54:56;8.07;;;3.67;;
18336;SDS011;9294;51.106;7.028;2023-12-20T10:57:23;6.10;;;2.70;;
18336;SDS011;9294;51.106;7.028;2023-12-20T10:59:53;8.85;;;2.92;;
18336;SDS011;9294;51.106;7.028;2023-12-20T11:02:21;8.68;;;3.25;;
18336;SDS011;9294;51.106;7.028;2023-12-20T11:04:50;7.68;;;2.88;;
18336;SDS011;9294;51.106;7.028;2023-12-20T11:07:21;7.43;;;2.97;;
18336;SDS011;9294;51.106;7.028;2023-12-20T11:09:54;5.10;;;3.22;;
18336;SDS011;9294;51.106;7.028;2023-12-20T11:12:28;8.70;;;2.90;;
18336;SDS011;9294;51.106;7.028;2023-12-20T11:15:03;5.05;;;2.88;;
18336;SDS011;9294;51.106;7.028;2023-12-20T11:17:31;11.18;;;4.07;;
18336;SDS011;9294;51.106;7.028;2023-12-20T11:20:05;7.43;;;3.88;;
18336;SDS011;9294;51.106;7.028;2023-12-20T11:22:35;12.13;;;3.35;;
18336;SDS011;9294;51.106;7.028;2023-12-20T11:25:06;7.03;;;3.00;;
18336;SDS011;9294;51.106;7.028;2023-12-20T11:27:35;6.78;;;3.47;;
18336;SDS011;9294;51.106;7.028;2023-12-20T11:30:03;10.40;;;3.63;;
18336;SDS011;9294;51.106;7.028;2023-12-20T11:32:33;9.77;;;3.10;;
18336;SDS011;9294;51.106;7.028;2023-12-20T11:35:01;9.90;;;3.85;;
18336;SDS011;9294;51.106;7.028;2023-12-20T11:37:43;6.93;;;3.58;;
18336;SDS011;9294;51.106;7.028;2023-12-20T11:40:14;7.07;;;3.22;;
18336;SDS011;9294;51.106;7.028;2023-12-20T11:42:42;6.47;;;3.50;;
18336;SDS011;9294;51.106;7.028;2023-12-20T11:45:10;7.50;;;3.97;;
18336;SDS011;9294;51.106;7.028;2023-12-20T11:47:39;6.40;;;2.88;;
18336;SDS011;9294;51.106;7.028;2023-12-20T11:50:07;10.77;;;2.67;;
18336;SDS011;9294;51.106;7.028;2023-12-20T11:52:34;6.68;;;3.35;;
18336;SDS011;9294;51.106;7.028;2023-12-20T11:55:01;4.93;;;3.13;;
18336;SDS011;9294;51.106;7.028;2023-12-20T11:57:30;7.38;;;3.28;;
18336;SDS011;9294;51.106;7.028;2023-12-20T11:59:56;6.13;;;2.80;;
18336;SDS011;9294;51.106;7.028;2023-12-20T12:02:23;4.75;;;2.72;;
18336;SDS011;9294;51.106;7.028;2023-12-20T12:04:50;3.47;;;2.70;;
18336;SDS011;9294;51.106;7.028;2023-12-20T12:07:17;4.63;;;2.80;;
18336;SDS011;9294;51.106;7.028;2023-12-20T12:09:44;2.80;;;2.38;;
18336;SDS011;9294;51.106;7.028;2023-12-20T12:12:11;5.35;;;2.60;;
18336;SDS011;9294;51.106;7.028;2023-12-20T12:14:40;7.70;;;3.38;;
18336;SDS011;9294;51.106;7.028;2023-12-20T12:17:09;7.30;;;2.65;;
18336;SDS011;9294;51.106;7.028;2023-12-20T12:19:36;6.95;;;3.30;;
18336;SDS011;9294;51.106;7.028;2023-12-20T12:22:07;7.85;;;2.92;;
18336;SDS011;9294;51.106;7.028;2023-12-20T12:24:37;4.13;;;2.25;;
18336;SDS011;9294;51.106;7.028;2023-12-20T12:27:05;4.20;;;2.60;;
18336;SDS011;9294;51.106;7.028;2023-12-20T12:29:32;5.53;;;2.58;;
18336;SDS011;9294;51.106;7.028;2023-12-20T12:32:01;4.10;;;2.42;;
18336;SDS011;9294;51.106;7.028;2023-12-20T12:34:30;5.70;;;3.05;;
18336;SDS011;9294;51.106;7.028;2023-12-20T12:36:57;7.40;;;2.50;;
18336;SDS011;9294;51.106;7.028;2023-12-20T12:39:24;5.15;;;3.08;;
18336;SDS011;9294;51.106;7.028;2023-12-20T12:41:51;4.70;;;2.70;;
18336;SDS011;9294;51.106;7.028;2023-12-20T12:44:17;4.60;;;2.67;;
18336;SDS011;9294;51.106;7.028;2023-12-20T12:46:44;5.15;;;2.65;;
18336;SDS011;9294;51.106;7.028;2023-12-20T12:49:13;5.30;;;2.95;;
18336;SDS011;9294;51.106;7.028;2023-12-20T12:51:40;3.13;;;2.25;;
18336;SDS011;9294;51.106;7.028;2023-12-20T12:54:07;3.15;;;2.13;;
18336;SDS011;9294;51.106;7.028;2023-12-20T12:56:34;3.53;;;2.45;;
18336;SDS011;9294;51.106;7.028;2023-12-20T12:59:01;11.77;;;3.08;;
18336;SDS011;9294;51.106;7.028;2023-12-20T13:01:28;3.33;;;1.90;;
18336;SDS011;9294;51.106;7.028;2023-12-20T13:03:55;3.67;;;2.50;;
18336;SDS011;9294;51.106;7.028;2023-12-20T13:06:23;3.20;;;2.28;;
18336;SDS011;9294;51.106;7.028;2023-12-20T13:08:50;2.55;;;2.30;;
18336;SDS011;9294;51.106;7.028;2023-12-20T13:11:16;5.40;;;2.40;;
18336;SDS011;9294;51.106;7.028;2023-12-20T13:13:43;2.25;;;1.88;;
18336;SDS011;9294;51.106;7.028;2023-12-20T13:16:10;2.83;;;2.22;;
18336;SDS011;9294;51.106;7.028;2023-12-20T13:18:38;2.53;;;2.15;;
18336;SDS011;9294;51.106;7.028;2023-12-20T13:21:07;5.88;;;2.05;;
18336;SDS011;9294;51.106;7.028;2023-12-20T13:23:35;2.58;;;2.33;;
18336;SDS011;9294;51.106;7.028;2023-12-20T13:26:02;2.13;;;1.92;;
18336;SDS011;9294;51.106;7.028;2023-12-20T13:28:29;4.15;;;1.90;;
18336;SDS011;9294;51.106;7.028;2023-12-20T13:30:56;4.90;;;2.13;;
18336;SDS011;9294;51.106;7.028;2023-12-20T13:33:23;1.83;;;1.70;;
18336;SDS011;9294;51.106;7.028;2023-12-20T13:35:48;5.47;;;1.98;;
18336;SDS011;9294;51.106;7.028;2023-12-20T13:38:15;2.88;;;1.75;;
18336;SDS011;9294;51.106;7.028;2023-12-20T13:40:43;3.58;;;2.17;;
18336;SDS011;9294;51.106;7.028;2023-12-20T13:43:10;4.10;;;2.03;;
18336;SDS011;9294;51.106;7.028;2023-12-20T13:45:37;3.30;;;2.00;;
18336;SDS011;9294;51.106;7.028;2023-12-20T13:48:04;2.97;;;1.80;;
18336;SDS011;9294;51.106;7.028;2023-12-20T13:50:31;3.47;;;2.28;;
18336;SDS011;9294;51.106;7.028;2023-12-20T13:52:58;3.30;;;1.90;;
18336;SDS011;9294;51.106;7.028;2023-12-20T13:55:25;3.53;;;2.35;;
18336;SDS011;9294;51.106;7.028;2023-12-20T13:57:53;3.22;;;1.95;;
18336;SDS011;9294;51.106;7.028;2023-12-20T14:00:20;4.18;;;1.80;;
18336;SDS011;9294;51.106;7.028;2023-12-20T14:02:47;3.17;;;2.03;;
18336;SDS011;9294;51.106;7.028;2023-12-20T14:05:15;1.73;;;1.63;;
18336;SDS011;9294;51.106;7.028;2023-12-20T14:07:42;2.72;;;2.28;;
18336;SDS011;9294;51.106;7.028;2023-12-20T14:10:10;2.92;;;2.05;;
18336;SDS011;9294;51.106;7.028;2023-12-20T14:12:37;4.88;;;1.77;;
18336;SDS011;9294;51.106;7.028;2023-12-20T14:15:06;5.38;;;2.00;;
18336;SDS011;9294;51.106;7.028;2023-12-20T14:17:36;4.97;;;1.70;;
18336;SDS011;9294;51.106;7.028;2023-12-20T14:20:03;2.20;;;1.88;;
18336;SDS011;9294;51.106;7.028;2023-12-20T14:22:31;2.33;;;1.80;;
18336;SDS011;9294;51.106;7.028;2023-12-20T14:24:58;3.55;;;2.03;;
18336;SDS011;9294;51.106;7.028;2023-12-20T14:27:24;5.13;;;1.70;;
18336;SDS011;9294;51.106;7.028;2023-12-20T14:29:52;4.30;;;2.17;;
18336;SDS011;9294;51.106;7.028;2023-12-20T14:32:20;2.42;;;1.83;;
18336;SDS011;9294;51.106;7.028;2023-12-20T14:34:47;3.97;;;2.13;;
18336;SDS011;9294;51.106;7.028;2023-12-20T14:37:14;4.35;;;2.35;;
18336;SDS011;9294;51.106;7.028;2023-12-20T14:39:42;2.72;;;2.47;;
18336;SDS011;9294;51.106;7.028;2023-12-20T14:42:08;2.38;;;2.13;;
18336;SDS011;9294;51.106;7.028;2023-12-20T14:44:38;2.15;;;1.90;;
18336;SDS011;9294;51.106;7.028;2023-12-20T14:47:05;4.05;;;1.88;;
18336;SDS011;9294;51.106;7.028;2023-12-20T14:49:33;1.88;;;1.45;;
18336;SDS011;9294;51.106;7.028;2023-12-20T14:51:59;2.60;;;1.60;;
18336;SDS011;9294;51.106;7.028;2023-12-20T14:54:26;4.07;;;2.20;;
18336;SDS011;9294;51.106;7.028;2023-12-20T14:56:53;3.17;;;2.17;;
18336;SDS011;9294;51.106;7.028;2023-12-20T14:59:20;2.03;;;1.80;;
18336;SDS011;9294;51.106;7.028;2023-12-20T15:01:47;1.85;;;1.58;;
18336;SDS011;9294;51.106;7.028;2023-12-20T15:04:14;2.55;;;1.70;;